Airfield :
LOGIN :

Register | Disclaimer

   EN    FR    IT 

 










Legend :    VFR   Marginal VFR   IFR   Intensive IFR   Very Intensive IFR
Visi :
Ceiling :
>= 8 km
>= 3000ft
5 to 8 km
1000 to 3000 ft
1500m to 5 km
500 to 1000 ft
800 to 1500m
200 to 500 ft
< 800m
< 200 ft
Symbols :   Thunderstorms  Fog  Heavy snow  Heavy precipitations  Wind > 20 kt
SIGMETs :     Misc.  Thunderstorms  Icing  Turbulence  Mountain Waves  Volcanic Ashes







- Airport Elevation : 26 ft


ETNT - Wittmundhaven AB

CURRENT METAR :
  • 202320Z 22004KT 7000 MIFG FEW022 BKN038 11/10 Q1029 WHT

EXPIRED METARs :
  • 202247Z 22003KT 5000 MIFG BR FEW024 BKN033 10/09 Q1029 WHT
  • 202235Z 23003KT 2000 BCFG BKN040 10/09 Q1029 YLO
  • 202220Z 22004KT 0900 R26/4700U FG BKN040 09/09 Q1029 AMB
  • 202134Z 26003KT 0050 R26/1500D FG FEW230 11/10 Q1029 RED
  • 202120Z 27005KT 5000 MIFG BR FEW120 SCT230 11/10 Q1029 WHT

TAF TAF ETNT
Valid from the 20 at 23:00 until the 21 at 08:00 UTC


202200Z 2023/2108 22003KT 3000 MIFG SCT035 FEW230
TEMPO 2023/2106 VRB02KT 0100 FG FEW035 FEW230
BECMG 2106/2108 23007KT 6000 NSW SCT010 BKN025 BY ETGL
No reported NOTAMs for that airfield.



MET'MAP, your aeronautical weather chart ! - Copyright ORBIFLY December 2007 - Disclaimer

ORBIFLY MET'MAP TEAM :

Programming & Development : Alexandra Zaïnal
Concept & Development : Baudouin d'Aumeries
Co-Development & Prog : Marc-Olivier Méhu
Technical & hardware support : Manuel Goepfert

Contact : metmap@orbifly.com




SOURCES & CREDITS :

   NOAA